Terminal Aerodrome Forecast
Issued by NWS

Home | Current Version | Previous Version | Text Only | Print | Product List | Glossary On
Versions: 1 2 3 4 5 6 7 8 9 10 11 12 13 14 15 16 17 18 19 20 21 22 23
000
FTUS41 KOKX 250520
TAFSWF
TAF
KSWF 250520Z 2506/2612 VRB03KT 6SM BR SKC
     FM250700 VRB02KT 4SM BR SKC
      TEMPO 2508/2512 2SM BR
     FM251300 VRB03KT P6SM SKC
     FM251600 08006KT P6SM FEW050 SCT250
     FM252200 12005KT P6SM FEW050 SCT250
     FM260400 VRB02KT 5SM BR FEW025 SCT250
     FM260800 VRB02KT 3SM BR BKN015
      AMD NOT SKED=

USA.gov is the U.S. government's official web portal to all federal, state and local government web resources and services.